sensor_id;sensor_type;location;lat;lon;timestamp;temperature;humidity
44823;DHT22;51097;51.984;5.650;2023-01-05T00:01:08;14.00;99.90
44823;DHT22;51097;51.984;5.650;2023-01-05T00:03:35;14.00;99.90
44823;DHT22;51097;51.984;5.650;2023-01-05T00:06:04;14.10;99.90
44823;DHT22;51097;51.984;5.650;2023-01-05T00:08:30;14.00;99.90
44823;DHT22;51097;51.984;5.650;2023-01-05T00:10:56;13.90;99.90
44823;DHT22;51097;51.984;5.650;2023-01-05T00:13:40;13.90;99.90
44823;DHT22;51097;51.984;5.650;2023-01-05T00:16:24;13.90;99.90
44823;DHT22;51097;51.984;5.650;2023-01-05T00:19:11;13.90;99.90
44823;DHT22;51097;51.984;5.650;2023-01-05T00:21:56;13.90;99.90
44823;DHT22;51097;51.984;5.650;2023-01-05T00:24:40;13.70;99.90
44823;DHT22;51097;51.984;5.650;2023-01-05T00:27:06;13.80;99.90
44823;DHT22;51097;51.984;5.650;2023-01-05T00:29:31;13.70;99.90
44823;DHT22;51097;51.984;5.650;2023-01-05T00:31:57;13.60;99.90
44823;DHT22;51097;51.984;5.650;2023-01-05T00:34:22;13.80;99.90
44823;DHT22;51097;51.984;5.650;2023-01-05T00:36:48;13.60;99.90
44823;DHT22;51097;51.984;5.650;2023-01-05T00:39:14;13.60;99.90
44823;DHT22;51097;51.984;5.650;2023-01-05T00:41:39;13.60;99.90
44823;DHT22;51097;51.984;5.650;2023-01-05T00:44:05;13.60;99.90
44823;DHT22;51097;51.984;5.650;2023-01-05T00:46:30;13.60;99.90
44823;DHT22;51097;51.984;5.650;2023-01-05T00:48:56;13.50;99.90
44823;DHT22;51097;51.984;5.650;2023-01-05T00:51:21;13.60;99.90
44823;DHT22;51097;51.984;5.650;2023-01-05T00:53:48;13.60;99.90
44823;DHT22;51097;51.984;5.650;2023-01-05T00:56:13;13.50;99.90
44823;DHT22;51097;51.984;5.650;2023-01-05T00:58:39;13.50;99.90
44823;DHT22;51097;51.984;5.650;2023-01-05T01:01:11;13.60;99.90
44823;DHT22;51097;51.984;5.650;2023-01-05T01:03:37;13.60;99.90
44823;DHT22;51097;51.984;5.650;2023-01-05T01:06:03;13.40;99.90
44823;DHT22;51097;51.984;5.650;2023-01-05T01:08:29;13.50;99.90
44823;DHT22;51097;51.984;5.650;2023-01-05T01:10:55;13.50;99.90
44823;DHT22;51097;51.984;5.650;2023-01-05T01:13:22;13.50;99.90
44823;DHT22;51097;51.984;5.650;2023-01-05T01:15:48;13.50;99.90
44823;DHT22;51097;51.984;5.650;2023-01-05T01:18:14;13.50;99.90
44823;DHT22;51097;51.984;5.650;2023-01-05T01:20:39;13.60;99.90
44823;DHT22;51097;51.984;5.650;2023-01-05T01:23:05;13.40;99.90
44823;DHT22;51097;51.984;5.650;2023-01-05T01:25:30;13.40;99.90
44823;DHT22;51097;51.984;5.650;2023-01-05T01:27:56;13.50;99.90
44823;DHT22;51097;51.984;5.650;2023-01-05T01:30:22;13.50;99.90
44823;DHT22;51097;51.984;5.650;2023-01-05T01:32:47;13.50;99.90
44823;DHT22;51097;51.984;5.650;2023-01-05T01:35:13;13.50;99.90
44823;DHT22;51097;51.984;5.650;2023-01-05T01:37:38;13.50;99.90
44823;DHT22;51097;51.984;5.650;2023-01-05T01:40:05;13.40;99.90
44823;DHT22;51097;51.984;5.650;2023-01-05T01:42:32;13.40;99.90
44823;DHT22;51097;51.984;5.650;2023-01-05T01:45:00;13.40;99.90
44823;DHT22;51097;51.984;5.650;2023-01-05T01:47:41;13.30;99.90
44823;DHT22;51097;51.984;5.650;2023-01-05T01:50:22;13.30;99.90
44823;DHT22;51097;51.984;5.650;2023-01-05T01:52:50;13.40;99.90
44823;DHT22;51097;51.984;5.650;2023-01-05T01:55:17;13.40;99.90
44823;DHT22;51097;51.984;5.650;2023-01-05T01:57:44;13.40;99.90
44823;DHT22;51097;51.984;5.650;2023-01-05T02:00:12;13.40;99.90
44823;DHT22;51097;51.984;5.650;2023-01-05T02:02:39;13.30;99.90
44823;DHT22;51097;51.984;5.650;2023-01-05T02:05:09;13.40;99.90
44823;DHT22;51097;51.984;5.650;2023-01-05T02:10:17;13.50;99.90
44823;DHT22;51097;51.984;5.650;2023-01-05T02:13:25;13.40;99.90
44823;DHT22;51097;51.984;5.650;2023-01-05T02:22:35;13.50;99.90
44823;DHT22;51097;51.984;5.650;2023-01-05T02:28:29;13.60;99.90
44823;DHT22;51097;51.984;5.650;2023-01-05T02:33:57;13.40;99.90
44823;DHT22;51097;51.984;5.650;2023-01-05T02:39:23;13.40;99.90
44823;DHT22;51097;51.984;5.650;2023-01-05T02:45:06;13.50;99.90
44823;DHT22;51097;51.984;5.650;2023-01-05T02:47:50;13.50;99.90
44823;DHT22;51097;51.984;5.650;2023-01-05T02:50:23;13.50;99.90
44823;DHT22;51097;51.984;5.650;2023-01-05T02:55:42;13.30;99.90
44823;DHT22;51097;51.984;5.650;2023-01-05T03:01:17;13.40;99.90
44823;DHT22;51097;51.984;5.650;2023-01-05T03:03:48;13.40;99.90
44823;DHT22;51097;51.984;5.650;2023-01-05T03:08:52;13.70;99.90
44823;DHT22;51097;51.984;5.650;2023-01-05T03:11:19;13.50;99.90
44823;DHT22;51097;51.984;5.650;2023-01-05T03:16:36;13.50;99.90
44823;DHT22;51097;51.984;5.650;2023-01-05T03:19:04;13.70;99.90
44823;DHT22;51097;51.984;5.650;2023-01-05T03:21:50;13.60;99.90
44823;DHT22;51097;51.984;5.650;2023-01-05T03:24:36;13.50;99.90
44823;DHT22;51097;51.984;5.650;2023-01-05T03:27:22;13.40;99.90
44823;DHT22;51097;51.984;5.650;2023-01-05T03:30:07;13.40;99.90
44823;DHT22;51097;51.984;5.650;2023-01-05T03:32:55;13.40;99.90
44823;DHT22;51097;51.984;5.650;2023-01-05T03:35:44;13.50;99.90
44823;DHT22;51097;51.984;5.650;2023-01-05T03:38:29;13.40;99.90
44823;DHT22;51097;51.984;5.650;2023-01-05T03:40:59;13.50;99.90
44823;DHT22;51097;51.984;5.650;2023-01-05T03:43:26;13.40;99.90
44823;DHT22;51097;51.984;5.650;2023-01-05T03:45:54;13.50;99.90
44823;DHT22;51097;51.984;5.650;2023-01-05T03:48:21;13.60;99.90
44823;DHT22;51097;51.984;5.650;2023-01-05T03:50:48;13.60;99.90
44823;DHT22;51097;51.984;5.650;2023-01-05T03:53:14;13.60;99.90
44823;DHT22;51097;51.984;5.650;2023-01-05T03:55:40;13.60;99.90
44823;DHT22;51097;51.984;5.650;2023-01-05T03:58:05;13.60;99.90
44823;DHT22;51097;51.984;5.650;2023-01-05T04:00:31;13.50;99.90
44823;DHT22;51097;51.984;5.650;2023-01-05T04:02:57;13.50;99.90
44823;DHT22;51097;51.984;5.650;2023-01-05T04:05:22;13.70;99.90
44823;DHT22;51097;51.984;5.650;2023-01-05T04:07:49;13.70;99.90
44823;DHT22;51097;51.984;5.650;2023-01-05T04:10:15;13.60;99.90
44823;DHT22;51097;51.984;5.650;2023-01-05T04:12:41;13.60;99.90
44823;DHT22;51097;51.984;5.650;2023-01-05T04:15:07;13.60;99.90
44823;DHT22;51097;51.984;5.650;2023-01-05T04:17:32;13.60;99.90
44823;DHT22;51097;51.984;5.650;2023-01-05T04:19:58;13.60;99.90
44823;DHT22;51097;51.984;5.650;2023-01-05T04:22:24;13.60;99.90
44823;DHT22;51097;51.984;5.650;2023-01-05T04:24:49;13.60;99.90
44823;DHT22;51097;51.984;5.650;2023-01-05T04:27:15;13.70;99.90
44823;DHT22;51097;51.984;5.650;2023-01-05T04:29:40;13.60;99.90
44823;DHT22;51097;51.984;5.650;2023-01-05T04:32:06;13.50;99.90
44823;DHT22;51097;51.984;5.650;2023-01-05T04:34:31;13.60;99.90
44823;DHT22;51097;51.984;5.650;2023-01-05T04:36:57;13.60;99.90
44823;DHT22;51097;51.984;5.650;2023-01-05T04:39:22;13.60;99.90
44823;DHT22;51097;51.984;5.650;2023-01-05T04:41:48;13.60;99.90
44823;DHT22;51097;51.984;5.650;2023-01-05T04:44:14;13.50;99.90
44823;DHT22;51097;51.984;5.650;2023-01-05T04:46:40;13.70;99.90
44823;DHT22;51097;51.984;5.650;2023-01-05T04:49:06;13.70;99.90
44823;DHT22;51097;51.984;5.650;2023-01-05T04:51:31;13.50;99.90
44823;DHT22;51097;51.984;5.650;2023-01-05T04:53:57;13.60;99.90
44823;DHT22;51097;51.984;5.650;2023-01-05T04:56:22;13.60;99.90
44823;DHT22;51097;51.984;5.650;2023-01-05T04:58:48;13.70;99.90
44823;DHT22;51097;51.984;5.650;2023-01-05T05:01:14;13.50;99.90
44823;DHT22;51097;51.984;5.650;2023-01-05T05:03:39;13.60;99.90
44823;DHT22;51097;51.984;5.650;2023-01-05T05:06:05;13.60;99.90
44823;DHT22;51097;51.984;5.650;2023-01-05T05:08:31;13.60;99.90
44823;DHT22;51097;51.984;5.650;2023-01-05T05:10:56;13.50;99.90
44823;DHT22;51097;51.984;5.650;2023-01-05T05:13:22;13.50;99.90
44823;DHT22;51097;51.984;5.650;2023-01-05T05:15:47;13.70;99.90
44823;DHT22;51097;51.984;5.650;2023-01-05T05:18:13;13.70;99.90
44823;DHT22;51097;51.984;5.650;2023-01-05T05:20:42;13.70;99.90
44823;DHT22;51097;51.984;5.650;2023-01-05T05:23:08;13.60;99.90
44823;DHT22;51097;51.984;5.650;2023-01-05T05:25:34;13.70;99.90
44823;DHT22;51097;51.984;5.650;2023-01-05T05:28:00;13.70;99.90
44823;DHT22;51097;51.984;5.650;2023-01-05T05:30:25;13.70;99.90
44823;DHT22;51097;51.984;5.650;2023-01-05T05:32:51;13.70;99.90
44823;DHT22;51097;51.984;5.650;2023-01-05T05:35:16;13.70;99.90
44823;DHT22;51097;51.984;5.650;2023-01-05T05:37:42;13.80;99.90
44823;DHT22;51097;51.984;5.650;2023-01-05T05:40:08;13.70;99.90
44823;DHT22;51097;51.984;5.650;2023-01-05T05:42:34;13.80;99.90
44823;DHT22;51097;51.984;5.650;2023-01-05T05:44:59;13.80;99.90
44823;DHT22;51097;51.984;5.650;2023-01-05T05:47:25;13.80;99.90
44823;DHT22;51097;51.984;5.650;2023-01-05T05:49:50;13.80;99.90
44823;DHT22;51097;51.984;5.650;2023-01-05T05:52:16;13.70;99.90
44823;DHT22;51097;51.984;5.650;2023-01-05T05:54:41;13.70;99.90
44823;DHT22;51097;51.984;5.650;2023-01-05T05:57:07;13.60;99.90
44823;DHT22;51097;51.984;5.650;2023-01-05T05:59:33;13.60;99.90
44823;DHT22;51097;51.984;5.650;2023-01-05T06:01:58;13.60;99.90
44823;DHT22;51097;51.984;5.650;2023-01-05T06:04:24;13.70;99.90
44823;DHT22;51097;51.984;5.650;2023-01-05T06:06:49;13.60;99.90
44823;DHT22;51097;51.984;5.650;2023-01-05T06:09:15;13.60;99.90
44823;DHT22;51097;51.984;5.650;2023-01-05T06:11:40;13.60;99.90
44823;DHT22;51097;51.984;5.650;2023-01-05T06:14:06;13.60;99.90
44823;DHT22;51097;51.984;5.650;2023-01-05T06:16:32;13.70;99.90
44823;DHT22;51097;51.984;5.650;2023-01-05T06:18:58;13.80;99.90
44823;DHT22;51097;51.984;5.650;2023-01-05T06:21:23;13.70;99.90
44823;DHT22;51097;51.984;5.650;2023-01-05T06:23:49;13.80;99.90
44823;DHT22;51097;51.984;5.650;2023-01-05T06:26:14;13.80;99.90
44823;DHT22;51097;51.984;5.650;2023-01-05T06:28:40;13.70;99.90
44823;DHT22;51097;51.984;5.650;2023-01-05T06:31:06;13.80;99.90
44823;DHT22;51097;51.984;5.650;2023-01-05T06:33:31;13.80;99.90
44823;DHT22;51097;51.984;5.650;2023-01-05T06:35:57;13.90;99.90
44823;DHT22;51097;51.984;5.650;2023-01-05T06:38:25;13.90;99.90
44823;DHT22;51097;51.984;5.650;2023-01-05T06:40:51;13.90;99.90
44823;DHT22;51097;51.984;5.650;2023-01-05T06:43:19;13.90;99.90
44823;DHT22;51097;51.984;5.650;2023-01-05T06:45:44;13.90;99.90
44823;DHT22;51097;51.984;5.650;2023-01-05T06:48:10;14.00;99.90
44823;DHT22;51097;51.984;5.650;2023-01-05T06:50:35;13.90;99.90
44823;DHT22;51097;51.984;5.650;2023-01-05T06:53:01;14.00;99.90
44823;DHT22;51097;51.984;5.650;2023-01-05T06:55:27;14.00;99.90
44823;DHT22;51097;51.984;5.650;2023-01-05T06:57:53;14.00;99.90
44823;DHT22;51097;51.984;5.650;2023-01-05T07:00:18;14.00;99.90
44823;DHT22;51097;51.984;5.650;2023-01-05T07:02:44;14.10;99.90
44823;DHT22;51097;51.984;5.650;2023-01-05T07:05:09;14.10;99.90
44823;DHT22;51097;51.984;5.650;2023-01-05T07:07:36;14.10;99.90
44823;DHT22;51097;51.984;5.650;2023-01-05T07:10:02;14.00;99.90
44823;DHT22;51097;51.984;5.650;2023-01-05T07:12:28;14.00;99.90
44823;DHT22;51097;51.984;5.650;2023-01-05T07:14:53;13.90;99.90
44823;DHT22;51097;51.984;5.650;2023-01-05T07:17:19;14.00;99.90
44823;DHT22;51097;51.984;5.650;2023-01-05T07:19:47;13.90;99.90
44823;DHT22;51097;51.984;5.650;2023-01-05T07:22:13;14.00;99.90
44823;DHT22;51097;51.984;5.650;2023-01-05T07:24:38;14.00;99.90
44823;DHT22;51097;51.984;5.650;2023-01-05T07:27:04;14.00;99.90
44823;DHT22;51097;51.984;5.650;2023-01-05T07:29:29;14.00;99.90
44823;DHT22;51097;51.984;5.650;2023-01-05T07:31:55;14.10;99.90
44823;DHT22;51097;51.984;5.650;2023-01-05T07:34:21;14.10;99.90
44823;DHT22;51097;51.984;5.650;2023-01-05T07:36:47;14.00;99.90
44823;DHT22;51097;51.984;5.650;2023-01-05T07:39:14;14.10;99.90
44823;DHT22;51097;51.984;5.650;2023-01-05T07:41:40;14.00;99.90
44823;DHT22;51097;51.984;5.650;2023-01-05T07:44:05;14.00;99.90
44823;DHT22;51097;51.984;5.650;2023-01-05T07:46:31;14.00;99.90
44823;DHT22;51097;51.984;5.650;2023-01-05T07:48:57;13.90;99.90
44823;DHT22;51097;51.984;5.650;2023-01-05T07:51:23;14.00;99.90
44823;DHT22;51097;51.984;5.650;2023-01-05T07:53:49;14.00;99.90
44823;DHT22;51097;51.984;5.650;2023-01-05T07:56:15;14.10;99.90
44823;DHT22;51097;51.984;5.650;2023-01-05T07:58:41;14.00;99.90
44823;DHT22;51097;51.984;5.650;2023-01-05T08:01:09;14.10;99.90
44823;DHT22;51097;51.984;5.650;2023-01-05T08:03:35;14.10;99.90
44823;DHT22;51097;51.984;5.650;2023-01-05T08:06:08;14.20;99.90
44823;DHT22;51097;51.984;5.650;2023-01-05T08:08:34;14.30;99.90
44823;DHT22;51097;51.984;5.650;2023-01-05T08:11:06;14.30;99.90
44823;DHT22;51097;51.984;5.650;2023-01-05T08:13:32;14.20;99.90
44823;DHT22;51097;51.984;5.650;2023-01-05T08:16:17;14.20;99.90
44823;DHT22;51097;51.984;5.650;2023-01-05T08:18:43;14.00;99.90
44823;DHT22;51097;51.984;5.650;2023-01-05T08:21:08;14.10;99.90
44823;DHT22;51097;51.984;5.650;2023-01-05T08:23:35;14.20;99.90
44823;DHT22;51097;51.984;5.650;2023-01-05T08:26:06;14.20;99.90
44823;DHT22;51097;51.984;5.650;2023-01-05T08:28:34;14.20;99.90
44823;DHT22;51097;51.984;5.650;2023-01-05T08:31:09;14.20;99.90
44823;DHT22;51097;51.984;5.650;2023-01-05T08:33:35;14.20;99.90
44823;DHT22;51097;51.984;5.650;2023-01-05T08:36:01;14.20;99.90
44823;DHT22;51097;51.984;5.650;2023-01-05T08:38:26;14.10;99.90
44823;DHT22;51097;51.984;5.650;2023-01-05T08:40:52;14.20;99.90
44823;DHT22;51097;51.984;5.650;2023-01-05T08:43:18;14.20;99.90
44823;DHT22;51097;51.984;5.650;2023-01-05T08:45:47;14.20;99.90
44823;DHT22;51097;51.984;5.650;2023-01-05T08:48:14;14.20;99.90
44823;DHT22;51097;51.984;5.650;2023-01-05T08:50:39;14.10;99.90
44823;DHT22;51097;51.984;5.650;2023-01-05T08:53:05;14.00;99.90
44823;DHT22;51097;51.984;5.650;2023-01-05T08:55:31;14.10;99.90
44823;DHT22;51097;51.984;5.650;2023-01-05T08:57:56;14.10;99.90
44823;DHT22;51097;51.984;5.650;2023-01-05T09:00:22;14.00;99.90
44823;DHT22;51097;51.984;5.650;2023-01-05T09:02:48;14.00;99.90
44823;DHT22;51097;51.984;5.650;2023-01-05T09:05:14;14.00;99.90
44823;DHT22;51097;51.984;5.650;2023-01-05T09:07:39;13.90;99.90
44823;DHT22;51097;51.984;5.650;2023-01-05T09:10:06;14.10;99.90
44823;DHT22;51097;51.984;5.650;2023-01-05T09:12:34;14.10;99.90
44823;DHT22;51097;51.984;5.650;2023-01-05T09:15:00;14.10;99.90
44823;DHT22;51097;51.984;5.650;2023-01-05T09:17:26;14.10;99.90
44823;DHT22;51097;51.984;5.650;2023-01-05T09:19:52;14.00;99.90
44823;DHT22;51097;51.984;5.650;2023-01-05T09:22:17;14.00;99.90
44823;DHT22;51097;51.984;5.650;2023-01-05T09:24:43;14.00;99.90
44823;DHT22;51097;51.984;5.650;2023-01-05T09:27:08;14.00;99.90
44823;DHT22;51097;51.984;5.650;2023-01-05T09:29:34;14.10;99.90
44823;DHT22;51097;51.984;5.650;2023-01-05T09:32:00;14.10;99.90
44823;DHT22;51097;51.984;5.650;2023-01-05T09:34:25;14.00;99.90
44823;DHT22;51097;51.984;5.650;2023-01-05T09:36:51;14.20;99.90
44823;DHT22;51097;51.984;5.650;2023-01-05T09:39:16;14.20;99.90
44823;DHT22;51097;51.984;5.650;2023-01-05T09:41:48;14.20;99.90
44823;DHT22;51097;51.984;5.650;2023-01-05T09:44:35;14.10;99.90
44823;DHT22;51097;51.984;5.650;2023-01-05T09:47:16;14.20;99.90
44823;DHT22;51097;51.984;5.650;2023-01-05T09:49:45;14.20;99.90
44823;DHT22;51097;51.984;5.650;2023-01-05T09:52:12;14.30;99.90
44823;DHT22;51097;51.984;5.650;2023-01-05T09:54:39;14.20;99.90
44823;DHT22;51097;51.984;5.650;2023-01-05T09:57:12;14.30;99.90
44823;DHT22;51097;51.984;5.650;2023-01-05T10:00:04;14.20;99.90
44823;DHT22;51097;51.984;5.650;2023-01-05T10:05:03;14.20;99.90
44823;DHT22;51097;51.984;5.650;2023-01-05T10:12:58;14.20;99.90
44823;DHT22;51097;51.984;5.650;2023-01-05T10:15:44;14.10;99.90
44823;DHT22;51097;51.984;5.650;2023-01-05T10:18:27;14.30;99.90
44823;DHT22;51097;51.984;5.650;2023-01-05T10:22:01;14.20;99.90
44823;DHT22;51097;51.984;5.650;2023-01-05T10:27:05;14.40;99.90
44823;DHT22;51097;51.984;5.650;2023-01-05T10:29:48;14.50;99.90
44823;DHT22;51097;51.984;5.650;2023-01-05T10:35:22;14.70;99.90
44823;DHT22;51097;51.984;5.650;2023-01-05T10:38:04;14.60;99.90
44823;DHT22;51097;51.984;5.650;2023-01-05T10:41:05;14.60;99.90
44823;DHT22;51097;51.984;5.650;2023-01-05T10:46:04;14.70;99.90
44823;DHT22;51097;51.984;5.650;2023-01-05T10:48:34;14.60;99.90
44823;DHT22;51097;51.984;5.650;2023-01-05T10:51:00;14.70;99.90
44823;DHT22;51097;51.984;5.650;2023-01-05T10:53:27;14.70;99.90
44823;DHT22;51097;51.984;5.650;2023-01-05T10:58:27;14.70;99.90
44823;DHT22;51097;51.984;5.650;2023-01-05T11:01:04;14.80;99.90
44823;DHT22;51097;51.984;5.650;2023-01-05T11:03:38;14.80;99.90
44823;DHT22;51097;51.984;5.650;2023-01-05T11:06:05;14.70;99.90
44823;DHT22;51097;51.984;5.650;2023-01-05T11:08:31;14.70;99.90
44823;DHT22;51097;51.984;5.650;2023-01-05T11:11:03;14.80;99.90
44823;DHT22;51097;51.984;5.650;2023-01-05T11:13:35;14.90;99.90
44823;DHT22;51097;51.984;5.650;2023-01-05T11:16:12;14.80;99.90
44823;DHT22;51097;51.984;5.650;2023-01-05T11:18:54;14.80;99.90
44823;DHT22;51097;51.984;5.650;2023-01-05T11:21:25;14.70;99.90
44823;DHT22;51097;51.984;5.650;2023-01-05T11:23:57;14.70;99.90
44823;DHT22;51097;51.984;5.650;2023-01-05T11:26:24;14.70;99.90
44823;DHT22;51097;51.984;5.650;2023-01-05T11:29:04;14.80;99.90
44823;DHT22;51097;51.984;5.650;2023-01-05T11:34:44;15.00;99.90
44823;DHT22;51097;51.984;5.650;2023-01-05T11:42:18;15.10;99.90
44823;DHT22;51097;51.984;5.650;2023-01-05T11:44:48;15.00;99.90
44823;DHT22;51097;51.984;5.650;2023-01-05T11:47:31;15.10;99.90
44823;DHT22;51097;51.984;5.650;2023-01-05T11:50:02;15.10;99.90
44823;DHT22;51097;51.984;5.650;2023-01-05T11:52:33;15.20;99.90
44823;DHT22;51097;51.984;5.650;2023-01-05T11:57:49;15.10;99.90
44823;DHT22;51097;51.984;5.650;2023-01-05T12:00:42;15.20;99.90
44823;DHT22;51097;51.984;5.650;2023-01-05T12:06:23;15.10;99.90
44823;DHT22;51097;51.984;5.650;2023-01-05T12:09:46;15.10;99.90
44823;DHT22;51097;51.984;5.650;2023-01-05T12:12:04;15.20;99.90
44823;DHT22;51097;51.984;5.650;2023-01-05T12:17:15;15.50;99.90
44823;DHT22;51097;51.984;5.650;2023-01-05T12:22:35;15.50;99.90
44823;DHT22;51097;51.984;5.650;2023-01-05T12:30:45;15.70;99.90
44823;DHT22;51097;51.984;5.650;2023-01-05T12:36:26;15.50;99.90
44823;DHT22;51097;51.984;5.650;2023-01-05T12:42:24;15.80;99.90
44823;DHT22;51097;51.984;5.650;2023-01-05T12:50:22;15.90;99.90
44823;DHT22;51097;51.984;5.650;2023-01-05T12:52:57;16.10;99.90
44823;DHT22;51097;51.984;5.650;2023-01-05T12:55:33;16.10;99.90
44823;DHT22;51097;51.984;5.650;2023-01-05T12:58:48;16.10;99.90
44823;DHT22;51097;51.984;5.650;2023-01-05T13:00:55;16.00;99.90
44823;DHT22;51097;51.984;5.650;2023-01-05T13:03:23;16.10;99.90
44823;DHT22;51097;51.984;5.650;2023-01-05T13:08:51;15.80;99.90
44823;DHT22;51097;51.984;5.650;2023-01-05T13:11:30;15.80;99.90
44823;DHT22;51097;51.984;5.650;2023-01-05T13:14:00;15.70;99.90
44823;DHT22;51097;51.984;5.650;2023-01-05T13:16:31;15.60;99.90
44823;DHT22;51097;51.984;5.650;2023-01-05T13:19:03;15.50;99.90
44823;DHT22;51097;51.984;5.650;2023-01-05T13:21:30;15.60;99.90
44823;DHT22;51097;51.984;5.650;2023-01-05T13:24:07;15.60;99.90
44823;DHT22;51097;51.984;5.650;2023-01-05T13:26:35;15.70;99.90
44823;DHT22;51097;51.984;5.650;2023-01-05T13:29:01;15.70;99.90
44823;DHT22;51097;51.984;5.650;2023-01-05T13:31:34;15.70;99.90
44823;DHT22;51097;51.984;5.650;2023-01-05T13:34:16;15.70;99.90
44823;DHT22;51097;51.984;5.650;2023-01-05T13:37:07;15.70;99.90
44823;DHT22;51097;51.984;5.650;2023-01-05T13:42:53;15.60;99.90
44823;DHT22;51097;51.984;5.650;2023-01-05T13:51:22;15.50;99.90
44823;DHT22;51097;51.984;5.650;2023-01-05T13:53:53;15.60;99.90
44823;DHT22;51097;51.984;5.650;2023-01-05T13:56:27;15.60;99.90
44823;DHT22;51097;51.984;5.650;2023-01-05T13:59:02;15.60;99.90
44823;DHT22;51097;51.984;5.650;2023-01-05T14:01:43;15.60;99.90
44823;DHT22;51097;51.984;5.650;2023-01-05T14:04:28;15.60;99.90
44823;DHT22;51097;51.984;5.650;2023-01-05T14:07:01;15.50;99.90
44823;DHT22;51097;51.984;5.650;2023-01-05T14:09:57;15.60;99.90
44823;DHT22;51097;51.984;5.650;2023-01-05T14:37:01;15.50;99.90
44823;DHT22;51097;51.984;5.650;2023-01-05T14:39:42;15.40;99.90
44823;DHT22;51097;51.984;5.650;2023-01-05T14:42:37;15.50;99.90
44823;DHT22;51097;51.984;5.650;2023-01-05T14:45:36;15.40;99.90
44823;DHT22;51097;51.984;5.650;2023-01-05T14:48:06;15.30;99.90
44823;DHT22;51097;51.984;5.650;2023-01-05T14:53:49;15.30;99.90
44823;DHT22;51097;51.984;5.650;2023-01-05T14:56:19;15.40;99.90
44823;DHT22;51097;51.984;5.650;2023-01-05T15:15:44;15.20;99.90
44823;DHT22;51097;51.984;5.650;2023-01-05T15:21:54;15.00;99.90
44823;DHT22;51097;51.984;5.650;2023-01-05T15:27:39;14.90;99.90
44823;DHT22;51097;51.984;5.650;2023-01-05T15:30:21;14.90;99.90
44823;DHT22;51097;51.984;5.650;2023-01-05T15:33:08;14.90;99.90
44823;DHT22;51097;51.984;5.650;2023-01-05T15:36:03;14.90;99.90
44823;DHT22;51097;51.984;5.650;2023-01-05T15:38:30;14.80;99.90
44823;DHT22;51097;51.984;5.650;2023-01-05T15:41:08;14.90;99.90
44823;DHT22;51097;51.984;5.650;2023-01-05T15:43:36;14.90;99.90
44823;DHT22;51097;51.984;5.650;2023-01-05T15:46:03;14.90;99.90
44823;DHT22;51097;51.984;5.650;2023-01-05T15:48:40;14.80;99.90
44823;DHT22;51097;51.984;5.650;2023-01-05T15:51:06;14.80;99.90
44823;DHT22;51097;51.984;5.650;2023-01-05T15:53:35;14.60;99.90
44823;DHT22;51097;51.984;5.650;2023-01-05T15:56:04;14.70;99.90
44823;DHT22;51097;51.984;5.650;2023-01-05T15:58:32;14.70;99.90
44823;DHT22;51097;51.984;5.650;2023-01-05T16:01:11;14.70;99.90
44823;DHT22;51097;51.984;5.650;2023-01-05T16:03:39;14.70;99.90
44823;DHT22;51097;51.984;5.650;2023-01-05T16:06:10;14.70;99.90
44823;DHT22;51097;51.984;5.650;2023-01-05T16:08:43;14.60;99.90
44823;DHT22;51097;51.984;5.650;2023-01-05T16:11:11;14.50;99.90
44823;DHT22;51097;51.984;5.650;2023-01-05T16:13:53;14.60;99.90
44823;DHT22;51097;51.984;5.650;2023-01-05T16:16:29;14.60;99.90
44823;DHT22;51097;51.984;5.650;2023-01-05T16:18:59;14.60;99.90
44823;DHT22;51097;51.984;5.650;2023-01-05T16:24:07;14.40;99.90
44823;DHT22;51097;51.984;5.650;2023-01-05T16:26:39;14.30;99.90
44823;DHT22;51097;51.984;5.650;2023-01-05T16:29:38;14.20;99.90
44823;DHT22;51097;51.984;5.650;2023-01-05T16:32:27;14.20;99.90
44823;DHT22;51097;51.984;5.650;2023-01-05T16:37:44;14.10;99.90
44823;DHT22;51097;51.984;5.650;2023-01-05T16:40:20;14.10;99.90
44823;DHT22;51097;51.984;5.650;2023-01-05T16:42:48;14.10;99.90
44823;DHT22;51097;51.984;5.650;2023-01-05T16:45:21;14.10;99.90
44823;DHT22;51097;51.984;5.650;2023-01-05T16:47:47;14.10;99.90
44823;DHT22;51097;51.984;5.650;2023-01-05T16:53:10;14.10;99.90
44823;DHT22;51097;51.984;5.650;2023-01-05T16:55:37;14.20;99.90
44823;DHT22;51097;51.984;5.650;2023-01-05T16:58:11;14.00;99.90
44823;DHT22;51097;51.984;5.650;2023-01-05T17:00:50;14.10;99.90
44823;DHT22;51097;51.984;5.650;2023-01-05T17:03:31;14.20;99.90
44823;DHT22;51097;51.984;5.650;2023-01-05T17:05:59;14.00;99.90
44823;DHT22;51097;51.984;5.650;2023-01-05T17:08:26;14.10;99.90
44823;DHT22;51097;51.984;5.650;2023-01-05T17:10:55;14.00;99.90
44823;DHT22;51097;51.984;5.650;2023-01-05T17:13:24;13.90;99.90
44823;DHT22;51097;51.984;5.650;2023-01-05T17:15:51;14.10;99.90
44823;DHT22;51097;51.984;5.650;2023-01-05T17:18:27;13.90;99.90
44823;DHT22;51097;51.984;5.650;2023-01-05T17:20:54;14.10;99.90
44823;DHT22;51097;51.984;5.650;2023-01-05T17:25:49;14.00;99.90
44823;DHT22;51097;51.984;5.650;2023-01-05T17:28:15;13.80;99.90
44823;DHT22;51097;51.984;5.650;2023-01-05T17:30:42;13.90;99.90
44823;DHT22;51097;51.984;5.650;2023-01-05T17:33:08;13.90;99.90
44823;DHT22;51097;51.984;5.650;2023-01-05T17:35:34;13.90;99.90
44823;DHT22;51097;51.984;5.650;2023-01-05T17:38:00;13.90;99.90
44823;DHT22;51097;51.984;5.650;2023-01-05T17:40:25;13.90;99.90
44823;DHT22;51097;51.984;5.650;2023-01-05T17:42:53;13.90;99.90
44823;DHT22;51097;51.984;5.650;2023-01-05T17:45:21;14.00;99.90
44823;DHT22;51097;51.984;5.650;2023-01-05T17:47:47;13.90;99.90
44823;DHT22;51097;51.984;5.650;2023-01-05T17:50:17;13.90;99.90
44823;DHT22;51097;51.984;5.650;2023-01-05T17:52:43;14.00;99.90
44823;DHT22;51097;51.984;5.650;2023-01-05T17:55:09;13.90;99.90
44823;DHT22;51097;51.984;5.650;2023-01-05T17:57:35;14.00;99.90
44823;DHT22;51097;51.984;5.650;2023-01-05T18:00:06;13.80;99.90
44823;DHT22;51097;51.984;5.650;2023-01-05T18:02:32;13.90;99.90
44823;DHT22;51097;51.984;5.650;2023-01-05T18:04:57;13.90;99.90
44823;DHT22;51097;51.984;5.650;2023-01-05T18:07:23;14.00;99.90
44823;DHT22;51097;51.984;5.650;2023-01-05T18:09:49;14.00;99.90
44823;DHT22;51097;51.984;5.650;2023-01-05T18:12:14;14.00;99.90
44823;DHT22;51097;51.984;5.650;2023-01-05T18:14:40;14.10;99.90
44823;DHT22;51097;51.984;5.650;2023-01-05T18:17:08;14.10;99.90
44823;DHT22;51097;51.984;5.650;2023-01-05T18:19:33;14.00;99.90
44823;DHT22;51097;51.984;5.650;2023-01-05T18:21:59;14.00;99.90
44823;DHT22;51097;51.984;5.650;2023-01-05T18:24:24;14.00;99.90
44823;DHT22;51097;51.984;5.650;2023-01-05T18:26:50;14.00;99.90
44823;DHT22;51097;51.984;5.650;2023-01-05T18:29:15;14.10;99.90
44823;DHT22;51097;51.984;5.650;2023-01-05T18:31:41;14.10;99.90